Time;durP1;ratioP1;P1;durP2;ratioP2;P2;SDS_P1;SDS_P2;PMS_P1;PMS_P2;Temp;Humidity;BMP_temperature;BMP_pressure;BME280_temperature;BME280_humidity;BME280_pressure;Samples;Min_cycle;Max_cycle;Signal;HPM_P1;HPM_P2
2023/11/22 00:00:11;;;;;;;9.07;6.10;;;4.50;84.40;;;3.65;88.57;98302.31;4946973;28;20958;-69
2023/11/22 00:02:39;;;;;;;8.57;7.07;;;4.50;85.00;;;3.53;88.89;98301.78;4946398;28;20462;-70
2023/11/22 00:05:08;;;;;;;8.40;6.40;;;4.40;85.00;;;3.48;88.65;98281.91;4942009;28;20488;-69
2023/11/22 00:07:36;;;;;;;6.80;5.80;;;4.40;84.60;;;3.63;88.87;98307.00;4948432;28;20465;-71
2023/11/22 00:10:05;;;;;;;5.83;5.13;;;4.40;85.00;;;3.58;87.56;98306.66;4947701;28;21073;-70
2023/11/22 00:12:36;;;;;;;8.70;6.20;;;4.40;84.40;;;3.35;87.91;98304.56;4945002;29;20984;-69
2023/11/22 00:15:06;;;;;;;7.43;5.83;;;4.30;83.80;;;3.34;88.70;98300.22;4948393;28;20464;-71
2023/11/22 00:17:35;;;;;;;8.13;6.20;;;4.20;84.30;;;3.33;88.38;98309.25;4939808;28;20457;-70
2023/11/22 00:20:05;;;;;;;8.93;6.43;;;4.20;84.70;;;3.31;89.27;98313.91;4947653;28;20504;-70
2023/11/22 00:22:32;;;;;;;10.07;7.10;;;4.10;84.70;;;3.02;89.09;98260.88;4946261;28;20457;-71
2023/11/22 00:25:01;;;;;;;9.70;6.97;;;4.20;85.30;;;3.45;88.36;98301.75;4950633;28;20566;-69
2023/11/22 00:27:29;;;;;;;8.50;7.23;;;4.20;85.20;;;3.33;89.17;98300.38;4949401;28;20488;-70
2023/11/22 00:29:57;;;;;;;10.43;7.57;;;4.20;84.70;;;3.30;88.02;98328.28;4948165;29;20467;-69
2023/11/22 00:32:25;;;;;;;7.80;6.30;;;4.20;84.50;;;3.16;88.54;98326.22;4950349;28;20465;-71
2023/11/22 00:34:53;;;;;;;9.13;7.23;;;4.10;84.50;;;3.08;88.44;98322.50;4951351;28;21145;-71
2023/11/22 00:37:21;;;;;;;9.87;7.00;;;4.00;84.60;;;3.04;89.29;98329.16;4950860;28;20472;-71
2023/11/22 00:39:48;;;;;;;9.00;7.73;;;3.90;84.50;;;3.25;88.18;98317.22;4953515;28;20458;-71
2023/11/22 00:42:15;;;;;;;9.60;6.30;;;4.00;84.40;;;2.91;88.61;98299.38;4951412;28;20469;-71
2023/11/22 00:44:42;;;;;;;7.10;5.80;;;4.00;84.10;;;3.04;88.56;98318.47;4951137;28;20859;-70
2023/11/22 00:47:09;;;;;;;10.93;7.57;;;3.90;84.40;;;3.07;89.08;98323.50;4949015;28;20525;-72
2023/11/22 00:49:36;;;;;;;8.10;6.57;;;3.90;84.40;;;3.09;87.15;98318.81;4949467;28;20458;-69
2023/11/22 00:52:07;;;;;;;9.10;6.10;;;4.00;84.10;;;3.09;88.67;98326.00;4948584;28;20460;-70
2023/11/22 00:54:34;;;;;;;7.90;6.60;;;3.90;84.20;;;3.04;88.44;98339.00;4948812;29;20463;-71
2023/11/22 00:57:01;;;;;;;9.03;6.20;;;3.90;84.50;;;2.92;87.88;98346.44;4951146;28;20453;-71
2023/11/22 00:59:28;;;;;;;6.67;6.07;;;3.80;84.20;;;3.04;86.76;98345.16;4951605;28;20461;-71
2023/11/22 01:01:56;;;;;;;6.80;6.10;;;3.90;83.80;;;2.67;87.09;98322.28;4949361;28;20555;-70
2023/11/22 01:04:23;;;;;;;8.57;6.20;;;3.80;83.10;;;2.90;86.75;98364.44;4948037;28;20486;-68
2023/11/22 01:06:51;;;;;;;7.53;6.03;;;3.80;82.90;;;3.01;85.75;98360.66;4947392;28;20476;-72
2023/11/22 01:09:19;;;;;;;7.10;5.13;;;3.90;82.50;;;2.68;85.38;98372.00;4951773;28;20469;-71
2023/11/22 01:11:47;;;;;;;5.70;5.00;;;3.70;81.70;;;2.88;84.15;98369.09;4950492;28;20468;-71
2023/11/22 01:14:14;;;;;;;6.33;5.57;;;3.70;81.50;;;2.94;83.38;98379.13;4951659;28;20451;-70
2023/11/22 01:16:43;;;;;;;6.10;5.03;;;3.80;81.20;;;2.86;81.98;98376.44;4947075;29;20496;-68
2023/11/22 01:19:10;;;;;;;5.93;4.57;;;3.70;80.40;;;2.66;80.93;98357.97;4951216;28;20554;-71
2023/11/22 01:21:37;;;;;;;5.87;4.40;;;3.70;79.30;;;2.77;81.03;98384.38;4950369;28;20459;-71
2023/11/22 01:24:06;;;;;;;4.93;3.60;;;3.70;79.40;;;2.14;78.84;98300.06;4949958;28;20522;-71
2023/11/22 01:26:34;;;;;;;4.87;4.13;;;3.60;78.30;;;2.47;78.02;98381.16;4947828;28;20455;-71
2023/11/22 01:29:02;;;;;;;5.10;3.87;;;3.50;77.00;;;2.47;78.28;98380.34;4951224;28;20526;-69
2023/11/22 01:31:29;;;;;;;5.57;4.00;;;3.40;76.80;;;2.37;77.10;98365.25;4948079;28;20447;-70
2023/11/22 01:33:58;;;;;;;7.90;4.10;;;3.40;76.40;;;2.39;76.81;98381.09;4950094;28;20450;-68
2023/11/22 01:36:26;;;;;;;4.87;4.37;;;3.40;76.30;;;2.40;77.93;98388.94;4946115;28;20466;-72
2023/11/22 01:38:53;;;;;;;5.83;4.40;;;3.30;76.50;;;2.45;77.40;98384.97;4950930;28;20460;-71
2023/11/22 01:41:21;;;;;;;5.90;4.77;;;3.30;76.40;;;2.31;77.09;98395.22;4948332;28;20527;-70
2023/11/22 01:43:50;;;;;;;4.40;3.80;;;3.30;76.00;;;2.30;78.03;98398.00;4950706;28;20472;-69
2023/11/22 01:46:24;;;;;;;5.80;4.27;;;3.20;76.50;;;2.24;77.22;98389.66;4948534;28;20466;-69
2023/11/22 01:48:53;;;;;;;5.70;5.07;;;3.20;76.20;;;2.28;77.94;98397.34;4949138;28;20504;-70
2023/11/22 01:51:21;;;;;;;5.13;4.07;;;3.30;76.40;;;2.33;78.13;98395.88;4946528;28;20463;-70
2023/11/22 01:53:50;;;;;;;5.50;4.60;;;3.20;76.70;;;1.81;78.33;98321.94;4946774;28;20461;-70
2023/11/22 01:56:18;;;;;;;7.67;4.47;;;3.20;76.60;;;2.29;78.41;98388.34;4949173;28;20463;-70
2023/11/22 01:58:45;;;;;;;6.67;4.77;;;3.20;76.70;;;2.23;78.55;98379.97;4948912;28;20508;-70
2023/11/22 02:01:14;;;;;;;6.10;4.27;;;3.20;76.80;;;1.78;78.97;98295.59;4936729;29;20473;-70
2023/11/22 02:03:41;;;;;;;5.67;4.50;;;3.20;77.20;;;2.30;79.08;98390.00;4947305;28;20464;-71
2023/11/22 02:06:10;;;;;;;7.47;4.50;;;3.20;77.20;;;2.08;79.10;98382.31;4947655;28;21013;-72
2023/11/22 02:08:39;;;;;;;4.67;4.27;;;3.10;77.10;;;2.23;79.57;98400.44;4945601;28;20531;-71
2023/11/22 02:11:06;;;;;;;4.50;4.10;;;3.10;77.40;;;2.16;79.06;98413.56;4946884;28;20470;-70
2023/11/22 02:13:33;;;;;;;4.80;4.07;;;3.10;77.20;;;2.18;79.25;98411.56;4948438;28;20469;-70
2023/11/22 02:16:01;;;;;;;6.50;5.07;;;3.10;77.50;;;2.09;80.00;98409.81;4947186;28;20959;-69
2023/11/22 02:18:30;;;;;;;6.00;4.90;;;3.00;77.60;;;1.92;80.35;98411.47;4949394;28;20810;-70
2023/11/22 02:20:58;;;;;;;8.43;4.40;;;2.90;77.50;;;1.82;80.73;98414.22;4948985;28;20477;-68
2023/11/22 02:23:28;;;;;;;7.30;5.53;;;2.80;77.50;;;1.73;80.49;98415.09;4948608;28;20472;-71
2023/11/22 02:25:56;;;;;;;7.40;5.30;;;2.70;77.40;;;1.61;80.79;98422.44;4930536;28;20454;-70
2023/11/22 02:28:23;;;;;;;4.50;3.67;;;2.60;77.40;;;1.54;80.41;98430.19;4962060;28;20650;-71
2023/11/22 02:30:51;;;;;;;5.10;4.57;;;2.50;77.30;;;1.47;80.31;98434.44;4949049;28;20463;-70
2023/11/22 02:33:19;;;;;;;6.07;4.33;;;2.50;77.30;;;1.46;80.75;98435.44;4942472;28;20456;-71
2023/11/22 02:35:46;;;;;;;6.13;4.47;;;2.50;77.40;;;1.48;80.83;98438.78;4940150;28;20475;-68
2023/11/22 02:38:13;;;;;;;5.47;4.70;;;2.40;77.50;;;1.45;80.51;98439.09;4941778;28;20971;-71
2023/11/22 02:40:42;;;;;;;6.27;5.07;;;2.40;77.60;;;1.38;80.84;98438.81;4947981;28;20492;-72
2023/11/22 02:43:09;;;;;;;6.80;4.40;;;2.40;77.50;;;1.33;81.10;98436.59;4945156;28;21248;-71
2023/11/22 02:45:36;;;;;;;8.00;5.20;;;2.30;77.70;;;1.32;81.16;98444.72;4943026;28;20956;-72
2023/11/22 02:48:09;;;;;;;5.30;4.60;;;2.30;77.80;;;1.31;81.54;98443.91;4945020;28;20458;-72
2023/11/22 02:50:38;;;;;;;7.20;5.37;;;2.20;77.90;;;1.30;81.65;98438.72;4945723;28;20464;-71
2023/11/22 02:53:05;;;;;;;5.87;4.67;;;2.20;78.00;;;1.31;81.91;98438.56;4962142;28;20461;-71
2023/11/22 02:55:33;;;;;;;6.13;5.10;;;2.20;78.40;;;1.35;82.00;98450.59;4947302;28;20463;-72
2023/11/22 02:58:02;;;;;;;4.90;4.37;;;2.20;78.50;;;1.16;83.10;98450.66;4948036;28;20458;-71
2023/11/22 03:00:29;;;;;;;5.50;4.93;;;2.20;78.80;;;1.20;83.67;98452.06;4946671;28;20825;-70
2023/11/22 03:02:56;;;;;;;8.47;5.67;;;2.10;79.00;;;1.25;84.09;98455.09;4948395;28;20572;-69
2023/11/22 03:05:24;;;;;;;5.60;4.50;;;2.10;79.40;;;1.21;83.71;98461.72;4947568;28;20474;-71
2023/11/22 03:07:51;;;;;;;7.40;5.37;;;2.20;79.20;;;1.21;83.74;98465.19;4947742;28;20464;-71
2023/11/22 03:10:19;;;;;;;6.17;5.07;;;2.10;79.30;;;1.25;84.42;98463.09;4947592;28;20550;-72
2023/11/22 03:12:46;;;;;;;6.43;5.50;;;2.10;79.70;;;1.34;83.59;98475.56;4948498;28;20619;-68
2023/11/22 03:15:15;;;;;;;6.00;4.90;;;2.30;79.30;;;1.16;83.59;98456.81;4946103;29;20459;-72
2023/11/22 03:17:43;;;;;;;6.47;5.10;;;2.30;79.30;;;1.41;83.33;98465.97;4947504;28;20470;-71
2023/11/22 03:20:11;;;;;;;6.07;5.00;;;2.30;79.20;;;1.54;82.38;98454.16;4945948;29;20544;-73
2023/11/22 03:22:39;;;;;;;6.00;5.13;;;2.40;79.20;;;1.57;82.88;98469.03;4946059;28;20470;-69
2023/11/22 03:25:09;;;;;;;6.03;5.13;;;2.50;79.30;;;1.61;82.09;98471.25;4946835;29;20569;-67
2023/11/22 03:27:36;;;;;;;6.37;5.23;;;2.50;79.00;;;1.18;82.45;98400.78;4947336;28;21181;-72
2023/11/22 03:30:05;;;;;;;5.50;4.33;;;2.50;79.10;;;1.60;81.32;98480.22;4948266;28;20481;-71
2023/11/22 03:32:36;;;;;;;4.83;4.23;;;2.50;78.40;;;1.70;81.59;98489.00;4943180;29;20952;-70
2023/11/22 03:35:05;;;;;;;5.87;4.50;;;2.60;78.50;;;1.66;80.86;98482.28;4938804;28;20466;-70
2023/11/22 03:37:32;;;;;;;4.90;4.10;;;2.60;78.10;;;1.60;81.28;98485.56;4945079;28;20469;-72
2023/11/22 03:39:59;;;;;;;4.77;4.03;;;2.60;78.20;;;1.69;79.54;98490.00;4945669;28;20464;-71
2023/11/22 03:42:27;;;;;;;4.80;4.27;;;2.60;77.40;;;1.63;79.15;98484.41;4942438;29;20534;-70
2023/11/22 03:44:55;;;;;;;5.63;4.60;;;2.70;77.00;;;1.75;78.97;98493.06;4947833;28;20540;-69
2023/11/22 03:47:22;;;;;;;6.20;4.23;;;2.60;76.90;;;1.63;78.31;98490.59;4946729;28;20555;-72
2023/11/22 03:49:50;;;;;;;4.50;3.83;;;2.70;76.40;;;1.70;78.26;98486.34;4953525;28;20580;-70
2023/11/22 03:52:18;;;;;;;6.70;4.23;;;2.70;76.60;;;1.75;77.93;98488.56;4946985;28;20464;-73
2023/11/22 03:54:45;;;;;;;4.43;4.00;;;2.70;76.20;;;1.72;78.05;98477.34;4948377;28;20842;-71
2023/11/22 03:57:13;;;;;;;4.77;4.30;;;2.70;76.40;;;1.55;77.50;98458.50;4947059;29;20460;-70
2023/11/22 03:59:42;;;;;;;5.97;3.70;;;2.80;76.20;;;1.76;76.92;98508.06;4945549;28;20460;-70
2023/11/22 04:02:10;;;;;;;4.17;3.20;;;2.70;75.40;;;1.77;75.75;98512.41;4947409;28;20464;-71
2023/11/22 04:04:39;;;;;;;4.10;3.70;;;2.70;75.00;;;1.63;75.89;98501.25;4950189;28;20524;-71
2023/11/22 04:07:08;;;;;;;3.80;3.40;;;2.70;74.80;;;1.77;75.76;98528.41;4948107;28;20447;-72
2023/11/22 04:09:35;;;;;;;4.03;3.57;;;2.70;74.60;;;1.84;75.42;98534.81;4947732;28;20948;-69
2023/11/22 04:12:03;;;;;;;4.40;3.93;;;2.70;74.60;;;1.87;76.07;98534.50;4946305;29;20441;-71
2023/11/22 04:14:31;;;;;;;5.67;3.73;;;2.70;75.00;;;1.77;77.08;98523.88;4947666;28;20525;-72
2023/11/22 04:16:58;;;;;;;4.93;4.43;;;2.70;75.20;;;1.89;76.09;98543.19;4943092;28;20472;-70
2023/11/22 04:19:25;;;;;;;4.80;3.30;;;2.70;75.10;;;1.91;75.97;98543.91;4946918;28;20870;-70
2023/11/22 04:21:54;;;;;;;4.30;3.70;;;2.80;74.80;;;1.86;76.84;98543.50;4945642;28;20458;-71
2023/11/22 04:24:22;;;;;;;5.67;4.43;;;2.80;75.10;;;1.69;76.83;98527.28;4948062;29;21212;-72
2023/11/22 04:26:50;;;;;;;9.30;4.23;;;2.80;75.30;;;1.86;77.15;98561.31;4951093;28;20450;-69
2023/11/22 04:29:17;;;;;;;5.27;4.30;;;2.70;75.30;;;1.90;76.40;98555.56;4951975;28;20452;-71
2023/11/22 04:31:44;;;;;;;4.80;4.27;;;2.80;75.00;;;1.92;76.89;98558.06;4947793;28;20453;-72
2023/11/22 04:34:11;;;;;;;7.90;4.10;;;2.80;75.10;;;1.85;76.62;98565.78;4947776;28;20455;-73
2023/11/22 04:36:39;;;;;;;6.00;4.80;;;2.80;75.10;;;1.98;76.49;98562.81;4946474;28;20456;-73
2023/11/22 04:39:07;;;;;;;5.00;4.50;;;2.80;75.40;;;1.91;77.29;98578.56;4943408;28;20519;-71
2023/11/22 04:41:36;;;;;;;6.23;4.30;;;2.80;75.60;;;1.82;78.33;98571.41;4947266;29;20516;-72
2023/11/22 04:44:04;;;;;;;4.60;4.07;;;2.80;75.90;;;1.68;79.37;98573.56;4946083;28;20455;-71
2023/11/22 04:46:31;;;;;;;5.73;4.90;;;2.70;76.80;;;1.77;80.37;98568.38;4947350;28;20558;-71
2023/11/22 04:48:59;;;;;;;6.00;5.17;;;2.70;77.20;;;1.85;80.51;98568.47;4947156;28;20495;-71
2023/11/22 04:51:29;;;;;;;5.90;5.10;;;2.70;77.80;;;1.65;81.48;98573.84;4945987;28;20554;-71
2023/11/22 04:53:56;;;;;;;9.33;5.63;;;2.60;77.70;;;1.67;80.07;98587.88;4963533;28;20456;-70
2023/11/22 04:56:23;;;;;;;8.03;5.23;;;2.60;77.10;;;1.72;80.07;98597.25;4945123;28;20464;-71
2023/11/22 04:58:52;;;;;;;7.80;5.70;;;2.60;77.00;;;1.75;80.92;98589.81;4947345;28;20460;-69
2023/11/22 05:01:19;;;;;;;7.17;5.50;;;2.60;77.80;;;1.74;80.97;98592.59;4943460;28;20527;-71
2023/11/22 05:03:46;;;;;;;7.40;5.50;;;2.60;77.60;;;1.86;80.32;98586.13;4946700;28;20521;-69
2023/11/22 05:06:14;;;;;;;6.43;5.83;;;2.70;77.80;;;1.51;81.12;98569.00;4941261;28;20533;-70
2023/11/22 05:08:41;;;;;;;6.90;4.50;;;2.60;77.50;;;1.49;80.11;98571.78;4950371;29;20546;-69
2023/11/22 05:11:09;;;;;;;5.80;4.77;;;2.50;77.10;;;1.34;79.74;98582.06;4945601;28;21005;-72
2023/11/22 05:13:37;;;;;;;6.27;4.87;;;2.40;76.70;;;1.39;80.63;98587.78;4950520;28;20456;-71
2023/11/22 05:16:06;;;;;;;6.63;5.63;;;2.30;77.40;;;1.43;80.52;98580.34;4945222;28;20490;-69
2023/11/22 05:18:35;;;;;;;7.80;5.23;;;2.30;77.30;;;1.51;80.85;98571.66;4939752;28;20554;-71
2023/11/22 05:21:03;;;;;;;7.73;5.90;;;2.30;77.80;;;1.03;80.90;98499.72;4948355;28;20456;-71
2023/11/22 05:23:33;;;;;;;6.27;5.13;;;2.40;77.70;;;1.49;80.06;98595.75;4948122;28;20461;-72
2023/11/22 05:26:00;;;;;;;5.63;4.60;;;2.40;77.60;;;1.50;79.67;98609.94;4944830;28;20564;-69
2023/11/22 05:28:27;;;;;;;7.20;5.30;;;2.40;77.20;;;1.55;79.51;98613.84;4951644;28;20954;-70
2023/11/22 05:30:55;;;;;;;9.70;6.00;;;2.40;76.90;;;1.49;78.55;98618.91;4949112;28;20841;-72
2023/11/22 05:33:23;;;;;;;8.17;5.30;;;2.40;76.20;;;1.41;77.30;98625.75;4948561;28;20491;-71
2023/11/22 05:35:51;;;;;;;8.30;5.50;;;2.40;75.30;;;1.50;77.83;98623.25;4963814;28;20450;-70
2023/11/22 05:38:18;;;;;;;7.17;5.30;;;2.40;75.80;;;1.45;76.72;98609.53;4948329;28;20455;-71
2023/11/22 05:40:45;;;;;;;8.30;5.70;;;2.40;75.20;;;1.61;77.16;98623.09;4950827;28;20449;-69
2023/11/22 05:43:13;;;;;;;8.20;5.63;;;2.50;75.40;;;1.63;77.17;98633.59;4946656;29;20459;-70
2023/11/22 05:45:40;;;;;;;7.90;5.87;;;2.50;75.30;;;1.56;77.69;98641.31;4946359;28;20503;-71
2023/11/22 05:48:07;;;;;;;9.53;6.40;;;2.50;75.50;;;1.42;77.63;98631.94;4962766;28;21622;-71
2023/11/22 05:50:36;;;;;;;9.30;6.50;;;2.50;75.50;;;1.61;76.64;98647.06;4947118;28;20461;-70
2023/11/22 05:53:03;;;;;;;9.53;6.57;;;2.50;75.20;;;1.53;76.40;98660.25;4948661;28;20506;-69
2023/11/22 05:55:30;;;;;;;11.17;7.90;;;2.50;74.90;;;1.44;76.35;98658.41;4945691;28;21236;-70
2023/11/22 05:58:00;;;;;;;8.90;7.53;;;2.40;74.50;;;1.49;75.41;98651.69;4945398;28;20514;-70
2023/11/22 06:00:28;;;;;;;8.97;6.80;;;2.40;74.40;;;1.55;75.95;98628.97;4949153;28;20475;-79
2023/11/22 06:02:55;;;;;;;10.60;7.10;;;2.40;74.50;;;1.45;75.63;98642.31;4947608;28;20466;-73
2023/11/22 06:05:23;;;;;;;9.03;7.70;;;2.40;74.40;;;1.34;76.42;98640.63;4948309;28;20928;-71
2023/11/22 06:07:51;;;;;;;9.87;7.40;;;2.40;74.50;;;1.61;76.02;98659.53;4948446;28;20490;-71
2023/11/22 06:10:19;;;;;;;9.10;6.80;;;2.40;74.80;;;1.72;75.56;98663.84;4946966;28;20461;-71
2023/11/22 06:12:46;;;;;;;8.43;7.37;;;2.50;74.50;;;1.54;75.41;98672.56;4961043;28;20458;-71
2023/11/22 06:15:13;;;;;;;11.00;7.70;;;2.40;74.20;;;1.51;75.60;98664.88;4943657;28;20475;-74
2023/11/22 06:17:41;;;;;;;10.40;7.17;;;2.40;74.30;;;1.46;75.66;98669.78;4942218;28;20614;-71
2023/11/22 06:20:11;;;;;;;11.37;7.87;;;2.40;74.30;;;1.41;75.35;98679.03;4961993;28;20481;-70
2023/11/22 06:22:40;;;;;;;11.90;8.33;;;2.40;74.00;;;1.34;76.26;98685.91;4945838;28;20748;-71
2023/11/22 06:25:10;;;;;;;9.83;7.20;;;2.30;74.30;;;1.44;76.50;98703.69;4936166;28;21050;-71
2023/11/22 06:27:37;;;;;;;11.27;7.60;;;2.30;74.60;;;1.39;76.52;98702.28;4940924;28;20966;-70
2023/11/22 06:30:07;;;;;;;9.37;7.30;;;2.30;74.60;;;1.51;76.47;98710.97;4945985;28;20491;-70
2023/11/22 06:32:36;;;;;;;10.07;7.60;;;2.40;74.70;;;1.47;76.33;98709.59;4944135;28;20904;-69
2023/11/22 06:35:03;;;;;;;9.80;8.00;;;2.30;74.60;;;1.48;76.02;98713.09;4958362;28;20454;-68
2023/11/22 06:37:30;;;;;;;9.20;7.10;;;2.30;74.50;;;1.46;76.26;98720.41;4957790;28;20461;-68
2023/11/22 06:39:58;;;;;;;16.70;9.00;;;2.30;74.50;;;1.50;77.09;98721.78;4947302;28;20464;-67
2023/11/22 06:42:27;;;;;;;10.90;8.20;;;2.30;75.00;;;1.60;77.61;98732.44;4945656;28;20872;-68
2023/11/22 06:44:58;;;;;;;9.67;7.07;;;2.40;75.00;;;1.49;76.77;98739.56;4945298;28;20474;-67
2023/11/22 06:47:25;;;;;;;11.17;7.93;;;2.40;74.90;;;1.49;76.78;98733.44;4947473;28;20537;-68
2023/11/22 06:49:53;;;;;;;12.03;8.47;;;2.40;74.80;;;1.46;77.42;98745.19;4948620;28;20466;-69
2023/11/22 06:52:20;;;;;;;13.10;8.03;;;2.40;75.30;;;1.39;77.05;98742.25;4946848;28;20473;-76
2023/11/22 06:54:47;;;;;;;14.40;8.77;;;2.30;74.70;;;1.33;76.85;98740.13;4941662;28;20445;-67
2023/11/22 06:57:14;;;;;;;11.80;8.07;;;2.30;74.70;;;1.44;76.03;98746.28;4958481;28;21148;-71
2023/11/22 06:59:43;;;;;;;11.00;7.40;;;2.30;74.40;;;1.35;75.74;98751.50;4946674;28;20463;-70
2023/11/22 07:02:11;;;;;;;11.77;8.10;;;2.30;74.20;;;1.49;75.54;98749.41;4948405;28;20471;-68
2023/11/22 07:04:39;;;;;;;10.77;7.97;;;2.30;74.40;;;1.37;75.79;98757.50;4941350;28;20511;-70
2023/11/22 07:07:10;;;;;;;12.83;7.90;;;2.30;74.10;;;1.47;75.34;98748.72;4944599;28;20481;-70
2023/11/22 07:09:38;;;;;;;9.37;7.60;;;2.30;74.30;;;1.34;75.78;98749.81;4944155;29;20454;-69
2023/11/22 07:12:07;;;;;;;10.87;7.87;;;2.30;74.10;;;1.33;75.44;98749.94;4946353;28;20451;-69
2023/11/22 07:14:34;;;;;;;12.77;8.63;;;2.30;74.00;;;1.40;75.58;98757.22;4944434;28;20459;-72
2023/11/22 07:17:06;;;;;;;13.13;7.67;;;2.30;74.10;;;1.49;75.91;98760.06;4938132;28;20472;-69
2023/11/22 07:19:37;;;;;;;12.10;8.60;;;2.30;74.20;;;1.49;75.77;98760.06;4944683;28;20459;-68
2023/11/22 07:22:15;;;;;;;12.00;8.23;;;2.40;74.20;;;1.47;75.01;98762.03;4944625;28;20964;-70
2023/11/22 07:24:43;;;;;;;11.90;8.23;;;2.30;73.60;;;1.51;75.42;98763.41;4939874;28;20525;-70
2023/11/22 07:27:12;;;;;;;11.70;7.90;;;2.40;74.00;;;1.55;75.61;98772.81;4956194;28;20476;-70
2023/11/22 07:29:41;;;;;;;13.07;8.50;;;2.40;74.30;;;1.65;75.36;98760.34;4939144;28;20562;-69
2023/11/22 07:32:10;;;;;;;12.87;9.13;;;2.50;74.20;;;1.61;75.33;98774.06;4957515;28;20456;-70
2023/11/22 07:34:39;;;;;;;9.20;6.93;;;2.50;74.10;;;1.72;73.34;98771.28;4939481;28;20451;-70
2023/11/22 07:37:07;;;;;;;10.50;7.53;;;2.50;73.00;;;1.78;72.88;98777.88;4959366;28;20534;-70
2023/11/22 07:39:35;;;;;;;8.93;6.57;;;2.60;73.20;;;1.37;73.08;98735.38;4943016;28;20558;-70
2023/11/22 07:42:03;;;;;;;12.07;7.93;;;2.50;72.40;;;1.64;72.71;98790.63;4944080;28;20467;-70
2023/11/22 07:44:32;;;;;;;9.70;7.37;;;2.60;72.40;;;1.56;73.60;98790.47;4944764;28;20479;-71
2023/11/22 07:47:00;;;;;;;10.50;7.57;;;2.50;72.60;;;1.63;73.90;98788.09;4944346;28;20481;-69
2023/11/22 07:49:30;;;;;;;9.70;7.83;;;2.50;72.80;;;1.62;74.07;98787.28;4944665;28;20494;-69
2023/11/22 07:51:57;;;;;;;12.20;8.80;;;2.50;73.50;;;1.65;74.71;98802.13;4942121;28;21028;-70
2023/11/22 07:54:25;;;;;;;12.77;8.87;;;2.50;73.50;;;1.79;74.53;98806.22;4945414;29;20459;-69
2023/11/22 07:56:52;;;;;;;13.60;9.43;;;2.60;73.70;;;1.75;75.78;98813.63;4942552;28;20510;-70
2023/11/22 07:59:20;;;;;;;9.93;8.40;;;2.60;73.90;;;1.78;75.39;98817.84;4937217;28;20468;-69
2023/11/22 08:01:48;;;;;;;11.30;8.40;;;2.60;73.90;;;1.56;75.58;98795.81;4941971;28;20458;-69
2023/11/22 08:04:16;;;;;;;12.03;8.50;;;2.60;73.90;;;1.61;75.95;98833.53;4947613;28;20458;-70
2023/11/22 08:06:45;;;;;;;11.83;8.70;;;2.50;74.10;;;1.60;76.18;98828.34;4945408;28;21062;-68
2023/11/22 08:09:14;;;;;;;11.50;8.90;;;2.50;74.30;;;1.61;76.47;98827.34;4943670;28;20636;-70
2023/11/22 08:11:42;;;;;;;13.47;10.77;;;2.50;74.30;;;1.40;75.84;98822.97;4942610;28;20509;-71
2023/11/22 08:14:09;;;;;;;13.10;9.83;;;2.40;73.70;;;1.49;75.81;98831.97;4946416;28;21757;-70
2023/11/22 08:16:42;;;;;;;14.33;9.90;;;2.40;74.00;;;1.05;76.56;98731.97;4945881;28;20465;-70
2023/11/22 08:19:09;;;;;;;14.43;10.40;;;2.40;74.60;;;1.71;77.70;98822.91;4948920;28;20578;-70
2023/11/22 08:21:37;;;;;;;12.50;9.03;;;2.50;75.70;;;1.89;76.07;98825.69;4951134;28;20466;-70
2023/11/22 08:24:08;;;;;;;13.00;10.60;;;2.60;75.00;;;1.23;76.53;98761.44;4947151;28;20462;-69
2023/11/22 08:26:35;;;;;;;14.13;9.50;;;2.60;74.60;;;1.62;76.18;98840.56;4939564;28;20506;-70
2023/11/22 08:29:03;;;;;;;15.63;10.43;;;2.60;74.50;;;1.36;76.17;98803.75;4940573;28;20476;-70
2023/11/22 08:31:30;;;;;;;14.07;10.30;;;2.50;74.40;;;1.63;76.93;98842.22;4942742;28;20550;-68
2023/11/22 08:33:58;;;;;;;16.83;10.50;;;2.50;74.60;;;1.79;78.04;98843.50;4945113;28;20466;-70
2023/11/22 08:36:25;;;;;;;14.73;10.47;;;2.50;75.30;;;1.90;75.67;98848.72;4942316;28;20454;-68
2023/11/22 08:38:52;;;;;;;16.30;10.27;;;2.70;75.00;;;1.84;76.06;98846.59;4945788;28;20475;-70
2023/11/22 08:41:23;;;;;;;16.17;10.00;;;2.70;74.50;;;1.91;75.09;98838.88;4942164;28;20714;-69
2023/11/22 08:43:50;;;;;;;15.80;9.87;;;2.70;74.40;;;1.73;74.09;98833.38;4946851;28;20454;-69
2023/11/22 08:46:17;;;;;;;16.07;9.77;;;2.70;73.30;;;1.57;75.20;98858.75;4942648;28;20480;-70
2023/11/22 08:48:45;;;;;;;13.87;10.07;;;2.60;73.50;;;1.63;76.00;98846.72;4946514;28;20545;-70
2023/11/22 08:51:12;;;;;;;13.50;10.13;;;2.50;74.10;;;1.71;75.38;98849.53;4946589;28;20459;-70
2023/11/22 08:53:39;;;;;;;15.07;10.67;;;2.60;74.00;;;1.68;74.72;98855.97;4948396;28;20459;-69
2023/11/22 08:56:08;;;;;;;13.40;10.53;;;2.60;73.70;;;1.50;74.52;98857.63;4948752;28;21160;-70
2023/11/22 08:58:37;;;;;;;14.23;10.23;;;2.50;73.00;;;1.42;75.59;98860.97;4949284;28;20458;-68
2023/11/22 09:01:05;;;;;;;14.30;10.30;;;2.40;73.30;;;1.50;75.22;98868.28;4963873;28;20466;-70
2023/11/22 09:03:32;;;;;;;16.90;10.33;;;2.40;73.50;;;1.62;74.76;98859.19;4946720;28;20495;-72
2023/11/22 09:06:00;;;;;;;14.13;10.90;;;2.40;73.50;;;1.68;75.19;98855.97;4947917;28;20534;-69
2023/11/22 09:08:28;;;;;;;11.30;9.00;;;2.50;73.70;;;1.77;74.01;98858.81;4947794;28;20562;-70
2023/11/22 09:10:55;;;;;;;14.30;10.67;;;2.60;73.20;;;1.80;74.05;98854.00;4947832;28;20449;-70
2023/11/22 09:13:24;;;;;;;14.07;10.30;;;2.60;73.30;;;1.69;74.48;98857.66;4944526;28;20463;-71
2023/11/22 09:15:53;;;;;;;10.87;8.73;;;2.60;73.20;;;1.79;74.53;98863.00;4961490;28;20541;-69
2023/11/22 09:18:21;;;;;;;12.07;9.00;;;2.60;73.30;;;1.69;74.52;98868.31;4943042;28;20468;-69
2023/11/22 09:20:49;;;;;;;11.97;8.70;;;2.60;73.30;;;1.85;74.43;98861.59;4944591;28;20450;-69
2023/11/22 09:23:16;;;;;;;11.53;8.40;;;2.60;73.30;;;1.73;74.27;98836.91;4947130;28;20463;-70
2023/11/22 09:25:43;;;;;;;14.77;9.57;;;2.70;73.30;;;1.94;74.36;98852.78;4937463;28;20443;-69
2023/11/22 09:28:11;;;;;;;13.37;9.23;;;2.70;73.20;;;1.70;74.13;98845.19;4944029;28;20488;-68
2023/11/22 09:30:38;;;;;;;12.40;9.57;;;2.70;73.30;;;1.77;73.93;98854.31;4948848;28;20468;-70
2023/11/22 09:33:10;;;;;;;13.93;9.13;;;2.70;73.20;;;1.89;73.62;98851.50;4946485;28;20463;-69
2023/11/22 09:35:38;;;;;;;12.53;9.40;;;2.70;73.00;;;1.85;72.76;98850.94;4948525;28;20471;-70
2023/11/22 09:38:09;;;;;;;11.90;9.60;;;2.70;72.60;;;1.80;73.59;98859.34;4945410;28;20467;-69
2023/11/22 09:40:37;;;;;;;13.63;9.53;;;2.70;72.80;;;1.70;74.34;98853.19;4945750;28;20515;-69
2023/11/22 09:43:05;;;;;;;11.50;9.33;;;2.60;72.80;;;1.56;74.76;98851.75;4946818;28;20468;-70
2023/11/22 09:45:34;;;;;;;12.50;9.10;;;2.50;72.90;;;1.55;74.92;98866.03;4946847;28;20466;-69
2023/11/22 09:48:04;;;;;;;12.77;9.27;;;2.50;73.10;;;1.48;75.56;98868.41;4944437;28;20495;-69
2023/11/22 09:50:41;;;;;;;12.67;9.77;;;2.40;73.20;;;1.57;75.19;98872.06;4946120;28;20547;-70
2023/11/22 09:53:15;;;;;;;12.50;9.20;;;2.50;73.40;;;1.64;74.60;98870.56;4944939;28;20462;-71
2023/11/22 09:55:45;;;;;;;11.77;8.30;;;2.50;73.20;;;1.61;74.35;98886.81;4946413;28;21027;-69
2023/11/22 09:58:15;;;;;;;13.13;10.03;;;2.60;73.00;;;1.33;75.46;98883.94;4941702;28;21018;-73
2023/11/22 10:00:42;;;;;;;14.90;8.80;;;2.50;73.20;;;1.65;74.94;98893.56;4940445;28;20460;-68
2023/11/22 10:03:12;;;;;;;12.50;9.40;;;2.50;73.30;;;1.64;74.04;98891.88;4944213;28;20459;-71
2023/11/22 10:05:43;;;;;;;12.77;9.30;;;2.50;72.80;;;1.22;73.37;98822.78;4939946;28;20462;-70
2023/11/22 10:08:10;;;;;;;10.87;8.80;;;2.60;72.60;;;1.76;73.84;98895.25;4948338;28;21898;-70
2023/11/22 10:10:40;;;;;;;12.13;8.90;;;2.70;72.70;;;1.93;73.13;98911.56;4948392;28;20472;-69
2023/11/22 10:13:07;;;;;;;14.03;8.50;;;2.70;72.60;;;2.00;72.95;98909.19;4945266;28;20463;-70
2023/11/22 10:15:34;;;;;;;11.87;8.67;;;2.80;72.60;;;1.97;72.41;98902.28;4946651;28;20947;-69
2023/11/22 10:18:01;;;;;;;15.37;8.37;;;2.80;72.10;;;1.97;72.05;98919.13;4945663;28;20459;-69
2023/11/22 10:20:41;;;;;;;11.43;8.23;;;2.80;71.70;;;1.93;72.63;98923.06;4946701;28;20464;-69
2023/11/22 10:23:13;;;;;;;11.00;8.60;;;2.80;71.80;;;1.84;72.60;98910.56;4945278;28;20512;-68
2023/11/22 10:25:49;;;;;;;13.00;8.73;;;2.80;71.80;;;1.94;72.09;98924.75;4944623;28;20934;-69
2023/11/22 10:28:17;;;;;;;11.30;8.27;;;2.80;71.50;;;2.02;71.88;98923.19;4941706;28;20585;-73
2023/11/22 10:30:46;;;;;;;12.60;8.23;;;2.90;71.40;;;1.97;71.25;98903.16;4936988;28;20464;-68
2023/11/22 10:33:14;;;;;;;12.67;7.97;;;2.90;70.90;;;2.02;71.11;98915.22;4936743;28;20627;-68